Time;durP1;ratioP1;P1;durP2;ratioP2;P2;SDS_P1;SDS_P2;PMS_P1;PMS_P2;Temp;Humidity;BMP_temperature;BMP_pressure;BME280_temperature;BME280_humidity;BME280_pressure;Samples;Min_cycle;Max_cycle;Signal;HPM_P1;HPM_P2
2021/07/04 00:01:43;;;;;;;7.20;6.03;;;;;;;;;;4974197;28;20050;-82
2021/07/04 00:04:08;;;;;;;8.27;6.07;;;;;;;;;;4986097;28;20038;-82
2021/07/04 00:06:34;;;;;;;7.38;5.10;;;;;;;;;;5008148;28;20137;-82
2021/07/04 00:08:59;;;;;;;7.20;5.80;;;;;;;;;;4995892;28;20121;-82
2021/07/04 00:11:25;;;;;;;8.88;6.20;;;;;;;;;;4993870;28;20030;-82
2021/07/04 00:13:50;;;;;;;7.10;5.85;;;;;;;;;;4988470;28;20394;-82
2021/07/04 00:16:16;;;;;;;9.77;6.47;;;;;;;;;;5008434;28;20117;-82
2021/07/04 00:18:41;;;;;;;6.43;5.50;;;;;;;;;;4976240;28;20038;-82
2021/07/04 00:21:09;;;;;;;6.45;4.95;;;;;;;;;;4989162;28;20033;-82
2021/07/04 00:23:35;;;;;;;7.05;5.32;;;;;;;;;;4991718;28;20035;-82
2021/07/04 00:26:01;;;;;;;6.53;5.30;;;;;;;;;;5007652;28;20490;-82
2021/07/04 00:28:26;;;;;;;8.70;6.10;;;;;;;;;;5019446;28;20053;-82
2021/07/04 00:30:53;;;;;;;6.32;4.80;;;;;;;;;;4990491;28;21006;-82
2021/07/04 00:33:19;;;;;;;6.70;5.00;;;;;;;;;;5009941;28;20027;-82
2021/07/04 00:35:44;;;;;;;6.15;5.13;;;;;;;;;;4990882;28;20132;-82
2021/07/04 00:38:10;;;;;;;6.57;5.43;;;;;;;;;;4991200;28;20030;-82
2021/07/04 00:40:37;;;;;;;8.43;5.13;;;;;;;;;;5010006;28;20034;-82
2021/07/04 00:43:06;;;;;;;6.40;4.57;;;;;;;;;;4987833;28;20034;-82
2021/07/04 00:45:32;;;;;;;6.15;5.07;;;;;;;;;;4987154;28;20090;-82
2021/07/04 00:47:58;;;;;;;5.97;4.82;;;;;;;;;;4983999;28;20031;-82
2021/07/04 00:50:26;;;;;;;6.00;5.03;;;;;;;;;;5020817;28;20029;-82
2021/07/04 00:52:53;;;;;;;5.90;4.75;;;;;;;;;;4992147;28;20065;-82
2021/07/04 00:55:18;;;;;;;6.03;5.20;;;;;;;;;;5010018;28;20026;-82
2021/07/04 00:57:45;;;;;;;6.22;4.97;;;;;;;;;;5005262;28;20030;-82
2021/07/04 01:00:14;;;;;;;5.38;4.50;;;;;;;;;;4993899;28;20050;-82
2021/07/04 01:02:40;;;;;;;7.00;4.93;;;;;;;;;;5022890;28;20026;-82
2021/07/04 01:05:18;;;;;;;6.32;4.88;;;;;;;;;;5024393;28;20026;-82
2021/07/04 01:07:45;;;;;;;5.47;4.05;;;;;;;;;;4997998;28;20030;-82
2021/07/04 01:10:13;;;;;;;6.75;5.00;;;;;;;;;;4994536;28;20109;-82
2021/07/04 01:12:41;;;;;;;6.22;5.10;;;;;;;;;;5010467;28;20500;-82
2021/07/04 01:15:07;;;;;;;5.63;4.72;;;;;;;;;;5001524;28;20113;-82
2021/07/04 01:17:34;;;;;;;7.07;5.10;;;;;;;;;;4979865;28;20152;-82
2021/07/04 01:20:00;;;;;;;5.80;5.07;;;;;;;;;;4989457;28;20038;-82
2021/07/04 01:22:27;;;;;;;6.32;5.07;;;;;;;;;;5010588;28;20055;-82
2021/07/04 01:24:54;;;;;;;5.82;5.10;;;;;;;;;;4991115;28;20083;-82
2021/07/04 01:27:21;;;;;;;6.38;5.25;;;;;;;;;;4995923;28;20422;-82
2021/07/04 01:29:46;;;;;;;5.88;5.22;;;;;;;;;;4994882;28;20026;-82
2021/07/04 01:32:12;;;;;;;6.78;5.03;;;;;;;;;;4997887;28;20394;-82
2021/07/04 01:34:37;;;;;;;6.65;5.22;;;;;;;;;;4995003;28;20034;-82
2021/07/04 01:37:03;;;;;;;6.40;5.55;;;;;;;;;;5014364;28;20058;-82
2021/07/04 01:39:28;;;;;;;6.20;4.80;;;;;;;;;;5010463;28;20039;-82
2021/07/04 01:41:56;;;;;;;5.75;4.85;;;;;;;;;;4985091;28;20081;-82
2021/07/04 01:44:21;;;;;;;5.80;4.82;;;;;;;;;;5024640;28;20026;-82
2021/07/04 01:46:46;;;;;;;5.63;4.82;;;;;;;;;;5021973;28;20054;-82
2021/07/04 01:49:12;;;;;;;7.03;5.10;;;;;;;;;;5003638;28;20106;-82
2021/07/04 01:51:38;;;;;;;5.20;4.53;;;;;;;;;;5007968;28;20077;-82
2021/07/04 01:54:03;;;;;;;6.30;4.93;;;;;;;;;;4977859;28;20030;-82
2021/07/04 01:56:29;;;;;;;5.97;4.82;;;;;;;;;;4993337;28;20466;-82
2021/07/04 01:58:54;;;;;;;5.82;4.90;;;;;;;;;;4997604;28;20030;-82
2021/07/04 02:01:20;;;;;;;6.20;5.20;;;;;;;;;;4993652;28;20627;-82
2021/07/04 02:03:45;;;;;;;6.57;4.90;;;;;;;;;;5009666;28;20026;-82
2021/07/04 02:06:11;;;;;;;6.45;5.72;;;;;;;;;;4970816;28;20022;-82
2021/07/04 02:08:36;;;;;;;6.30;5.38;;;;;;;;;;4976485;28;20030;-82
2021/07/04 02:11:02;;;;;;;5.97;5.15;;;;;;;;;;4979253;28;20038;-82
2021/07/04 02:13:27;;;;;;;6.53;5.20;;;;;;;;;;4995138;28;20346;-82
2021/07/04 02:15:53;;;;;;;6.22;5.25;;;;;;;;;;4998370;28;20532;-82
2021/07/04 02:18:18;;;;;;;6.72;5.80;;;;;;;;;;5002187;28;20030;-82
2021/07/04 02:20:47;;;;;;;7.05;6.00;;;;;;;;;;5021367;28;20056;-82
2021/07/04 02:23:24;;;;;;;8.00;6.10;;;;;;;;;;4993380;28;20069;-82
2021/07/04 02:25:50;;;;;;;7.50;6.07;;;;;;;;;;5005938;28;20027;-82
2021/07/04 02:28:18;;;;;;;7.07;5.57;;;;;;;;;;4985780;28;20080;-82
2021/07/04 02:30:45;;;;;;;6.20;5.60;;;;;;;;;;4996379;28;20437;-82
2021/07/04 02:33:12;;;;;;;7.70;6.22;;;;;;;;;;4994734;28;20038;-82
2021/07/04 02:35:41;;;;;;;7.25;5.57;;;;;;;;;;5001749;28;20022;-82
2021/07/04 02:38:07;;;;;;;6.72;5.68;;;;;;;;;;4997419;28;20042;-82
2021/07/04 02:40:34;;;;;;;7.40;5.68;;;;;;;;;;4986735;28;20129;-82
2021/07/04 02:43:00;;;;;;;8.43;6.43;;;;;;;;;;4995605;28;20033;-82
2021/07/04 02:45:26;;;;;;;7.03;5.65;;;;;;;;;;4994188;28;20054;-81
2021/07/04 02:47:53;;;;;;;6.95;6.00;;;;;;;;;;4979127;28;20038;-82
2021/07/04 02:50:21;;;;;;;7.90;6.50;;;;;;;;;;4970116;28;20486;-82
2021/07/04 02:52:47;;;;;;;7.80;6.38;;;;;;;;;;5011271;28;20049;-82
2021/07/04 02:55:13;;;;;;;7.25;6.15;;;;;;;;;;4979433;28;20038;-82
2021/07/04 02:57:38;;;;;;;6.90;5.82;;;;;;;;;;4966526;28;20739;-82
2021/07/04 03:00:09;;;;;;;7.40;6.13;;;;;;;;;;4979172;28;20116;-82
2021/07/04 03:02:35;;;;;;;8.55;6.40;;;;;;;;;;5003076;28;20030;-82
2021/07/04 03:05:01;;;;;;;12.68;6.50;;;;;;;;;;4995148;28;20026;-82
2021/07/04 03:07:27;;;;;;;8.80;6.28;;;;;;;;;;4996194;28;20097;-82
2021/07/04 03:09:52;;;;;;;6.38;5.45;;;;;;;;;;4963784;28;20544;-82
2021/07/04 03:12:18;;;;;;;7.05;5.65;;;;;;;;;;4977449;28;20121;-82
2021/07/04 03:14:43;;;;;;;7.03;5.88;;;;;;;;;;5008137;28;20069;-82
2021/07/04 03:17:09;;;;;;;8.70;6.85;;;;;;;;;;4994663;28;20397;-82
2021/07/04 03:19:34;;;;;;;9.32;6.63;;;;;;;;;;5023513;28;20065;-82
2021/07/04 03:22:00;;;;;;;7.55;6.38;;;;;;;;;;4993766;28;20506;-82
2021/07/04 03:24:25;;;;;;;7.03;6.22;;;;;;;;;;5005946;28;20521;-82
2021/07/04 03:26:51;;;;;;;7.85;5.90;;;;;;;;;;4994174;28;20034;-82
2021/07/04 03:29:16;;;;;;;9.02;7.00;;;;;;;;;;4985765;28;20036;-82
2021/07/04 03:31:41;;;;;;;8.75;7.53;;;;;;;;;;5010257;28;20069;-82
2021/07/04 03:34:07;;;;;;;8.05;7.13;;;;;;;;;;5003987;28;20031;-82
2021/07/04 03:36:33;;;;;;;10.60;7.97;;;;;;;;;;5014611;28;20031;-82
2021/07/04 03:38:58;;;;;;;9.45;7.82;;;;;;;;;;5013189;28;20044;-82
2021/07/04 03:41:24;;;;;;;7.68;6.70;;;;;;;;;;4995089;28;20129;-82
2021/07/04 03:43:49;;;;;;;7.88;6.93;;;;;;;;;;4994069;28;20466;-82
2021/07/04 03:46:15;;;;;;;7.20;6.20;;;;;;;;;;4988276;28;20057;-82
2021/07/04 03:48:40;;;;;;;7.78;6.97;;;;;;;;;;4995262;28;20046;-82
2021/07/04 03:51:06;;;;;;;7.22;6.53;;;;;;;;;;4989927;28;20054;-82
2021/07/04 03:53:31;;;;;;;8.18;6.32;;;;;;;;;;4988532;28;20034;-82
2021/07/04 03:55:56;;;;;;;7.28;6.57;;;;;;;;;;4999054;28;20038;-82
2021/07/04 03:58:22;;;;;;;8.18;5.97;;;;;;;;;;4990853;28;20482;-82
2021/07/04 04:00:47;;;;;;;6.60;5.85;;;;;;;;;;4982055;28;20030;-82
2021/07/04 04:03:13;;;;;;;8.98;6.05;;;;;;;;;;5016637;28;20047;-82
2021/07/04 04:05:38;;;;;;;7.70;6.90;;;;;;;;;;4987969;28;20030;-82
2021/07/04 04:08:06;;;;;;;6.82;6.07;;;;;;;;;;4995018;28;20034;-82
2021/07/04 04:10:32;;;;;;;8.15;6.22;;;;;;;;;;4995093;28;20227;-82
2021/07/04 04:12:58;;;;;;;7.53;6.18;;;;;;;;;;5004791;28;20509;-82
2021/07/04 04:15:23;;;;;;;7.25;6.40;;;;;;;;;;4998199;28;20482;-82
2021/07/04 04:17:49;;;;;;;7.20;6.18;;;;;;;;;;5017591;28;20031;-82
2021/07/04 04:20:15;;;;;;;6.70;5.97;;;;;;;;;;4993795;28;20037;-82
2021/07/04 04:22:40;;;;;;;6.38;5.70;;;;;;;;;;4984575;28;20040;-82
2021/07/04 04:25:06;;;;;;;7.15;6.15;;;;;;;;;;4988143;28;20039;-82
2021/07/04 04:27:31;;;;;;;8.00;6.32;;;;;;;;;;5007754;28;20030;-82
2021/07/04 04:29:57;;;;;;;10.82;7.28;;;;;;;;;;5011261;28;20359;-82
2021/07/04 04:32:23;;;;;;;8.02;6.78;;;;;;;;;;5001597;28;20031;-82
2021/07/04 04:34:48;;;;;;;7.53;6.50;;;;;;;;;;5001832;28;20022;-82
2021/07/04 04:37:13;;;;;;;8.95;6.75;;;;;;;;;;4997374;28;20038;-82
2021/07/04 04:39:39;;;;;;;9.00;7.05;;;;;;;;;;5000815;28;20498;-82
2021/07/04 04:42:04;;;;;;;9.48;7.90;;;;;;;;;;5013551;28;20042;-82
2021/07/04 04:44:30;;;;;;;8.65;7.65;;;;;;;;;;5024645;28;20041;-82
2021/07/04 04:46:55;;;;;;;8.25;7.10;;;;;;;;;;5006848;28;20058;-82
2021/07/04 04:49:21;;;;;;;10.23;7.80;;;;;;;;;;5026897;28;20034;-82
2021/07/04 04:51:46;;;;;;;8.68;7.00;;;;;;;;;;4993959;28;20046;-82
2021/07/04 04:54:11;;;;;;;10.27;8.45;;;;;;;;;;4995561;28;20512;-82
2021/07/04 04:56:37;;;;;;;9.82;7.97;;;;;;;;;;5016498;28;20030;-82
2021/07/04 04:59:04;;;;;;;9.13;7.63;;;;;;;;;;4983959;28;20026;-82
2021/07/04 05:01:29;;;;;;;9.75;7.82;;;;;;;;;;5006500;28;21606;-82
2021/07/04 05:03:59;;;;;;;10.50;8.98;;;;;;;;;;5007011;28;20084;-82
2021/07/04 05:06:25;;;;;;;16.17;11.60;;;;;;;;;;5016811;28;20034;-82
2021/07/04 05:08:50;;;;;;;12.75;10.75;;;;;;;;;;4998304;28;20030;-82
2021/07/04 05:11:16;;;;;;;13.85;11.43;;;;;;;;;;5029788;28;20498;-82
2021/07/04 05:13:42;;;;;;;10.93;9.20;;;;;;;;;;4988984;28;20041;-82
2021/07/04 05:16:08;;;;;;;10.68;8.73;;;;;;;;;;5001354;28;20023;-82
2021/07/04 05:18:34;;;;;;;10.35;9.02;;;;;;;;;;4997513;28;20030;-82
2021/07/04 05:21:00;;;;;;;12.50;10.18;;;;;;;;;;4994174;28;20034;-82
2021/07/04 05:23:26;;;;;;;11.88;9.10;;;;;;;;;;4992691;28;20096;-81
2021/07/04 05:25:55;;;;;;;14.98;11.70;;;;;;;;;;5002713;28;20041;-82
2021/07/04 05:28:21;;;;;;;15.43;11.75;;;;;;;;;;5026148;28;20034;-82
2021/07/04 05:30:47;;;;;;;13.98;11.30;;;;;;;;;;4993958;28;20034;-82
2021/07/04 05:33:12;;;;;;;20.98;15.43;;;;;;;;;;4997381;28;20038;-82
2021/07/04 05:35:39;;;;;;;19.85;15.57;;;;;;;;;;4995824;28;20022;-82
2021/07/04 05:38:05;;;;;;;21.85;15.93;;;;;;;;;;5028126;28;20030;-82
2021/07/04 05:40:30;;;;;;;20.52;15.70;;;;;;;;;;4980466;28;20385;-81
2021/07/04 05:42:56;;;;;;;18.10;14.63;;;;;;;;;;5017466;28;20501;-81
2021/07/04 05:45:24;;;;;;;25.58;18.55;;;;;;;;;;5028513;28;20070;-82
2021/07/04 05:47:50;;;;;;;22.60;16.52;;;;;;;;;;4993651;28;20414;-82
2021/07/04 05:50:15;;;;;;;17.85;14.10;;;;;;;;;;4993274;28;20026;-82
2021/07/04 05:52:41;;;;;;;20.38;16.23;;;;;;;;;;4996074;28;20437;-81
2021/07/04 05:55:07;;;;;;;22.20;15.55;;;;;;;;;;5013515;28;20027;-81
2021/07/04 05:57:32;;;;;;;24.23;17.40;;;;;;;;;;4989529;28;20117;-81
2021/07/04 05:59:58;;;;;;;24.40;18.40;;;;;;;;;;4996612;28;20061;-81
2021/07/04 06:02:23;;;;;;;22.77;17.13;;;;;;;;;;4992736;28;20394;-81
2021/07/04 06:04:49;;;;;;;22.70;18.55;;;;;;;;;;5014210;28;20112;-81
2021/07/04 06:07:14;;;;;;;28.15;21.15;;;;;;;;;;4998611;28;20026;-81
2021/07/04 06:09:39;;;;;;;27.60;20.90;;;;;;;;;;4993480;28;20041;-81
2021/07/04 06:12:06;;;;;;;27.15;21.20;;;;;;;;;;4994088;28;20433;-81
2021/07/04 06:14:32;;;;;;;29.55;21.02;;;;;;;;;;5022391;28;20486;-81
2021/07/04 06:16:57;;;;;;;30.08;21.45;;;;;;;;;;5009501;28;20026;-81
2021/07/04 06:19:23;;;;;;;37.45;22.48;;;;;;;;;;4995022;28;20033;-81
2021/07/04 06:21:48;;;;;;;34.55;24.67;;;;;;;;;;4998492;28;20038;-81
2021/07/04 06:24:14;;;;;;;32.30;22.33;;;;;;;;;;4997341;28;20485;-81
2021/07/04 06:26:39;;;;;;;34.42;23.67;;;;;;;;;;4996471;28;20114;-81
2021/07/04 06:29:05;;;;;;;33.03;23.10;;;;;;;;;;4988846;28;20046;-81
2021/07/04 06:31:31;;;;;;;37.90;24.80;;;;;;;;;;4994791;28;20041;-81
2021/07/04 06:33:57;;;;;;;34.50;23.23;;;;;;;;;;4993413;28;20042;-81
2021/07/04 06:36:27;;;;;;;30.35;22.05;;;;;;;;;;4993277;28;20026;-81
2021/07/04 06:38:54;;;;;;;31.20;22.55;;;;;;;;;;4993680;28;20026;-81
2021/07/04 06:41:20;;;;;;;31.80;21.90;;;;;;;;;;4991141;28;20052;-81
2021/07/04 06:43:45;;;;;;;39.17;25.85;;;;;;;;;;4986597;28;20125;-81
2021/07/04 06:46:11;;;;;;;37.50;25.80;;;;;;;;;;4988890;28;20142;-81
2021/07/04 06:48:37;;;;;;;34.83;23.00;;;;;;;;;;5009138;28;20034;-81
2021/07/04 06:51:07;;;;;;;40.25;24.73;;;;;;;;;;4976547;28;20030;-81
2021/07/04 06:53:32;;;;;;;44.45;27.08;;;;;;;;;;4998325;28;20029;-81
2021/07/04 06:55:58;;;;;;;41.08;25.45;;;;;;;;;;4992884;28;20027;-81
2021/07/04 06:58:23;;;;;;;43.03;25.63;;;;;;;;;;5010840;28;20041;-81
2021/07/04 07:00:48;;;;;;;43.97;27.38;;;;;;;;;;4996439;28;20034;-81
2021/07/04 07:03:14;;;;;;;41.95;25.70;;;;;;;;;;5001331;28;20505;-81
2021/07/04 07:05:40;;;;;;;39.53;25.42;;;;;;;;;;5012646;28;20038;-81
2021/07/04 07:08:05;;;;;;;44.50;26.83;;;;;;;;;;5004153;28;20027;-81
2021/07/04 07:10:31;;;;;;;43.50;27.67;;;;;;;;;;4997165;28;20487;-81
2021/07/04 07:12:58;;;;;;;42.42;26.77;;;;;;;;;;4997724;28;20441;-81
2021/07/04 07:15:23;;;;;;;41.92;27.45;;;;;;;;;;4994434;28;20486;-81
2021/07/04 07:17:49;;;;;;;45.20;28.50;;;;;;;;;;4988706;28;20114;-81
2021/07/04 07:20:14;;;;;;;43.88;25.95;;;;;;;;;;4993557;28;20113;-81
2021/07/04 07:22:40;;;;;;;40.33;25.35;;;;;;;;;;4991772;28;20500;-81
2021/07/04 07:25:07;;;;;;;35.65;24.15;;;;;;;;;;4989375;28;20027;-81
2021/07/04 07:27:32;;;;;;;42.60;26.05;;;;;;;;;;5012237;28;20038;-81
2021/07/04 07:29:58;;;;;;;38.58;24.17;;;;;;;;;;4988559;28;20082;-81
2021/07/04 07:32:25;;;;;;;38.17;23.85;;;;;;;;;;4990806;28;20034;-81
2021/07/04 07:34:51;;;;;;;42.20;26.35;;;;;;;;;;5007044;28;20117;-81
2021/07/04 07:37:16;;;;;;;47.67;26.30;;;;;;;;;;4991800;28;20081;-81
2021/07/04 07:39:42;;;;;;;37.47;24.50;;;;;;;;;;5002328;28;20494;-81
2021/07/04 07:42:07;;;;;;;39.95;25.15;;;;;;;;;;4980691;28;20112;-81
2021/07/04 07:44:33;;;;;;;41.80;26.05;;;;;;;;;;5014908;28;20069;-81
2021/07/04 07:46:58;;;;;;;34.55;22.60;;;;;;;;;;4995839;28;20051;-81
2021/07/04 07:49:24;;;;;;;41.75;26.30;;;;;;;;;;4987717;28;20034;-81
2021/07/04 07:51:49;;;;;;;44.13;27.02;;;;;;;;;;5022421;28;20088;-81
2021/07/04 07:54:20;;;;;;;40.03;24.25;;;;;;;;;;4964077;28;20061;-81
2021/07/04 07:56:46;;;;;;;42.70;24.83;;;;;;;;;;4989468;28;20093;-81
2021/07/04 07:59:11;;;;;;;43.58;25.58;;;;;;;;;;4991567;28;20109;-81
2021/07/04 08:01:37;;;;;;;42.72;26.55;;;;;;;;;;4994223;28;20038;-81
2021/07/04 08:04:02;;;;;;;41.63;26.67;;;;;;;;;;5000080;28;20042;-81
2021/07/04 08:06:28;;;;;;;37.30;23.70;;;;;;;;;;4990904;28;20026;-81
2021/07/04 08:08:53;;;;;;;40.53;23.67;;;;;;;;;;5007919;28;20057;-80
2021/07/04 08:11:19;;;;;;;42.30;24.00;;;;;;;;;;4993883;28;20045;-81
2021/07/04 08:13:44;;;;;;;38.75;24.52;;;;;;;;;;4994426;28;20039;-80
2021/07/04 08:16:10;;;;;;;37.58;23.45;;;;;;;;;;5009291;28;20509;-80
2021/07/04 08:18:35;;;;;;;35.25;23.20;;;;;;;;;;4993903;28;20493;-80
2021/07/04 08:21:01;;;;;;;35.88;23.88;;;;;;;;;;4998760;28;20034;-81
2021/07/04 08:23:27;;;;;;;31.85;21.63;;;;;;;;;;4993174;28;20034;-80
2021/07/04 08:25:52;;;;;;;29.25;20.40;;;;;;;;;;4998329;28;20037;-81
2021/07/04 08:28:18;;;;;;;31.75;20.92;;;;;;;;;;5008438;28;20037;-80
2021/07/04 08:30:47;;;;;;;29.67;20.88;;;;;;;;;;4990239;28;20034;-80
2021/07/04 08:33:13;;;;;;;28.65;19.73;;;;;;;;;;4993963;28;20026;-80
2021/07/04 08:35:38;;;;;;;24.75;17.30;;;;;;;;;;4995987;28;20022;-81
2021/07/04 08:38:04;;;;;;;27.80;18.60;;;;;;;;;;4976594;28;20041;-81
2021/07/04 08:40:30;;;;;;;26.17;19.48;;;;;;;;;;5003943;28;20030;-81
2021/07/04 08:42:57;;;;;;;24.05;17.25;;;;;;;;;;4989352;28;20756;-80
2021/07/04 08:45:22;;;;;;;24.73;17.13;;;;;;;;;;5019176;28;20466;-80
2021/07/04 08:47:48;;;;;;;23.38;16.92;;;;;;;;;;4998036;28;20117;-80
2021/07/04 08:50:14;;;;;;;27.75;18.80;;;;;;;;;;4994889;28;20033;-80
2021/07/04 08:52:41;;;;;;;26.15;17.95;;;;;;;;;;5023519;28;20034;-81
2021/07/04 08:55:08;;;;;;;26.95;18.00;;;;;;;;;;4990491;28;20525;-81
2021/07/04 08:57:34;;;;;;;22.27;16.23;;;;;;;;;;4990878;28;20787;-80
2021/07/04 09:00:00;;;;;;;20.98;15.15;;;;;;;;;;4994521;28;20034;-80
2021/07/04 09:02:40;;;;;;;22.55;16.33;;;;;;;;;;4986172;28;20039;-81
2021/07/04 09:05:06;;;;;;;21.45;16.83;;;;;;;;;;5007636;28;20026;-81
2021/07/04 09:07:33;;;;;;;22.92;17.05;;;;;;;;;;5012218;28;20546;-80
2021/07/04 09:10:10;;;;;;;22.50;16.38;;;;;;;;;;4997145;28;20026;-80
2021/07/04 09:12:39;;;;;;;21.83;16.52;;;;;;;;;;4991426;28;20354;-80
2021/07/04 09:15:16;;;;;;;23.25;16.75;;;;;;;;;;5010895;28;20022;-80
2021/07/04 09:17:50;;;;;;;21.52;15.43;;;;;;;;;;5032293;28;20026;-81
2021/07/04 09:20:34;;;;;;;21.77;16.23;;;;;;;;;;4991766;28;20058;-81
2021/07/04 09:23:01;;;;;;;20.10;14.05;;;;;;;;;;5020161;28;20061;-80
2021/07/04 09:25:38;;;;;;;22.77;16.70;;;;;;;;;;4990029;28;20030;-80
2021/07/04 09:28:10;;;;;;;21.88;16.58;;;;;;;;;;4992934;28;20564;-81
2021/07/04 09:30:52;;;;;;;24.13;18.23;;;;;;;;;;4990624;28;20050;-81
2021/07/04 09:33:23;;;;;;;24.98;17.73;;;;;;;;;;4991370;28;20038;-81
2021/07/04 09:35:59;;;;;;;24.35;16.95;;;;;;;;;;5007711;28;20027;-80
2021/07/04 09:38:29;;;;;;;23.58;16.27;;;;;;;;;;5010354;28;20050;-81
2021/07/04 09:40:55;;;;;;;24.38;17.63;;;;;;;;;;5007591;28;20022;-81
2021/07/04 09:43:21;;;;;;;23.30;17.08;;;;;;;;;;4966224;28;20132;-81
2021/07/04 09:45:55;;;;;;;24.50;17.00;;;;;;;;;;4993889;28;20045;-80
2021/07/04 09:48:30;;;;;;;26.20;17.83;;;;;;;;;;5013283;28;20026;-81
2021/07/04 09:51:16;;;;;;;27.02;17.90;;;;;;;;;;5009355;28;20069;-80
2021/07/04 09:53:54;;;;;;;24.10;16.88;;;;;;;;;;5008962;28;20482;-77
2021/07/04 09:56:21;;;;;;;24.83;17.33;;;;;;;;;;5007794;28;20053;-77
2021/07/04 09:58:49;;;;;;;24.23;17.23;;;;;;;;;;5010409;28;20025;-77
2021/07/04 10:01:34;;;;;;;23.48;17.25;;;;;;;;;;5003891;28;20029;-77
2021/07/04 10:04:00;;;;;;;23.08;16.90;;;;;;;;;;5006819;28;20738;-77
2021/07/04 10:06:26;;;;;;;23.23;15.25;;;;;;;;;;5004750;28;20040;-77
2021/07/04 10:08:53;;;;;;;22.38;15.40;;;;;;;;;;5007654;28;20029;-77
2021/07/04 10:11:18;;;;;;;20.42;14.88;;;;;;;;;;5007647;28;20021;-77
2021/07/04 10:13:46;;;;;;;22.95;15.23;;;;;;;;;;5007801;28;20044;-78
2021/07/04 10:16:18;;;;;;;18.65;13.85;;;;;;;;;;5009555;28;20022;-77
2021/07/04 10:18:46;;;;;;;22.43;14.50;;;;;;;;;;5003954;28;20026;-77
2021/07/04 10:21:13;;;;;;;22.75;15.07;;;;;;;;;;5008908;28;20473;-77
2021/07/04 10:23:44;;;;;;;21.70;14.82;;;;;;;;;;5023394;28;20097;-77
2021/07/04 10:26:10;;;;;;;21.47;15.30;;;;;;;;;;5008017;28;20104;-77
2021/07/04 10:28:38;;;;;;;24.98;16.25;;;;;;;;;;5001797;28;20069;-77
2021/07/04 10:31:09;;;;;;;25.33;16.58;;;;;;;;;;5006343;28;20087;-77
2021/07/04 10:33:35;;;;;;;25.63;16.75;;;;;;;;;;5005034;28;20041;-77
2021/07/04 10:36:08;;;;;;;23.80;16.20;;;;;;;;;;4987938;28;20033;-77
2021/07/04 10:38:39;;;;;;;24.77;17.13;;;;;;;;;;4999314;28;20038;-77
2021/07/04 10:41:20;;;;;;;24.60;16.90;;;;;;;;;;5023811;28;20033;-77
2021/07/04 10:44:00;;;;;;;24.77;16.77;;;;;;;;;;5005640;28;20036;-77
2021/07/04 10:46:44;;;;;;;26.45;18.00;;;;;;;;;;5006504;28;20049;-77
2021/07/04 10:49:14;;;;;;;23.33;16.25;;;;;;;;;;5009806;28;20535;-77
2021/07/04 10:52:04;;;;;;;21.83;15.02;;;;;;;;;;5008397;28;20034;-77
2021/07/04 10:54:54;;;;;;;19.42;12.95;;;;;;;;;;5007895;28;20025;-77
2021/07/04 10:57:35;;;;;;;19.75;13.45;;;;;;;;;;5003040;28;20041;-77
2021/07/04 11:00:00;;;;;;;19.70;14.85;;;;;;;;;;5008119;28;20024;-77
2021/07/04 11:03:18;;;;;;;21.95;15.50;;;;;;;;;;5009175;28;20030;-77
2021/07/04 11:05:45;;;;;;;21.98;14.40;;;;;;;;;;4983856;28;20077;-78
2021/07/04 11:08:18;;;;;;;24.88;14.95;;;;;;;;;;5002981;28;20148;-78
2021/07/04 11:10:49;;;;;;;19.35;14.18;;;;;;;;;;5008682;28;20041;-77
2021/07/04 11:13:15;;;;;;;20.58;14.55;;;;;;;;;;5007592;28;20032;-77
2021/07/04 11:15:44;;;;;;;19.08;13.50;;;;;;;;;;5008337;28;20022;-78
2021/07/04 11:18:15;;;;;;;21.70;14.15;;;;;;;;;;5008487;28;21811;-77
2021/07/04 11:20:40;;;;;;;19.95;14.02;;;;;;;;;;5024103;28;20113;-78
2021/07/04 11:23:16;;;;;;;20.95;14.18;;;;;;;;;;5010475;28;20098;-78
2021/07/04 11:25:55;;;;;;;21.13;14.00;;;;;;;;;;5011939;28;20030;-78
2021/07/04 11:28:22;;;;;;;22.10;14.13;;;;;;;;;;5007973;28;20049;-77
2021/07/04 11:31:01;;;;;;;19.92;14.43;;;;;;;;;;5004816;28;20612;-78
2021/07/04 11:33:32;;;;;;;19.63;13.52;;;;;;;;;;5006970;28;20089;-77
2021/07/04 11:36:09;;;;;;;20.38;12.95;;;;;;;;;;5004403;28;20057;-78
2021/07/04 11:38:59;;;;;;;16.70;12.13;;;;;;;;;;5023480;28;20026;-78
2021/07/04 11:41:33;;;;;;;17.10;12.38;;;;;;;;;;5007064;28;20052;-78
2021/07/04 11:44:05;;;;;;;18.35;11.85;;;;;;;;;;5008498;28;20114;-77
2021/07/04 11:46:32;;;;;;;16.55;11.05;;;;;;;;;;5021318;28;20046;-78
2021/07/04 11:48:59;;;;;;;17.25;10.77;;;;;;;;;;5025889;28;20065;-78
2021/07/04 11:51:27;;;;;;;16.77;11.27;;;;;;;;;;5029350;28;20470;-78
2021/07/04 11:53:56;;;;;;;16.42;10.70;;;;;;;;;;5012909;28;20037;-78
2021/07/04 11:56:22;;;;;;;16.95;11.77;;;;;;;;;;4999528;28;20041;-78
2021/07/04 11:58:47;;;;;;;14.05;10.02;;;;;;;;;;4986690;28;20038;-77
2021/07/04 12:01:21;;;;;;;15.13;10.30;;;;;;;;;;5016042;28;20040;-78
2021/07/04 12:03:49;;;;;;;18.30;9.55;;;;;;;;;;5006765;28;20097;-78
2021/07/04 12:06:15;;;;;;;13.45;9.98;;;;;;;;;;5001310;28;20155;-78
2021/07/04 12:09:10;;;;;;;14.48;9.80;;;;;;;;;;5002470;28;20131;-77
2021/07/04 12:11:43;;;;;;;14.25;9.55;;;;;;;;;;5003194;28;20137;-78
2021/07/04 12:14:22;;;;;;;14.32;9.77;;;;;;;;;;5002613;28;20057;-77
2021/07/04 12:16:48;;;;;;;15.90;10.73;;;;;;;;;;5006578;28;20068;-77
2021/07/04 12:19:31;;;;;;;12.50;8.50;;;;;;;;;;5007366;28;20041;-77
2021/07/04 12:21:59;;;;;;;12.43;8.32;;;;;;;;;;5006141;28;20041;-78
2021/07/04 12:24:57;;;;;;;12.13;8.80;;;;;;;;;;5007185;28;20389;-78
2021/07/04 12:27:38;;;;;;;12.55;9.10;;;;;;;;;;5005578;28;20057;-77
2021/07/04 12:30:11;;;;;;;12.75;8.38;;;;;;;;;;5005897;28;20401;-78
2021/07/04 12:33:01;;;;;;;12.57;8.70;;;;;;;;;;5006175;28;20029;-78
2021/07/04 12:35:46;;;;;;;16.67;7.93;;;;;;;;;;5008066;28;20409;-77
2021/07/04 12:38:23;;;;;;;11.02;7.65;;;;;;;;;;5022435;28;20096;-78
2021/07/04 12:40:55;;;;;;;9.13;7.20;;;;;;;;;;5007981;28;20034;-77
2021/07/04 12:43:35;;;;;;;11.43;7.40;;;;;;;;;;5023848;28;20088;-78
2021/07/04 12:46:23;;;;;;;9.88;6.32;;;;;;;;;;5007288;28;20076;-78
2021/07/04 12:48:50;;;;;;;9.57;6.38;;;;;;;;;;5008959;28;20044;-78
2021/07/04 12:51:33;;;;;;;9.93;7.07;;;;;;;;;;5011454;28;20401;-78
2021/07/04 12:53:59;;;;;;;10.35;7.22;;;;;;;;;;5012869;28;20048;-78
2021/07/04 12:56:32;;;;;;;9.93;6.55;;;;;;;;;;5014274;28;20446;-78
2021/07/04 12:59:02;;;;;;;12.50;6.30;;;;;;;;;;5007516;28;20021;-78
2021/07/04 13:01:28;;;;;;;8.80;5.75;;;;;;;;;;5000586;28;20046;-77
2021/07/04 13:04:05;;;;;;;7.43;5.20;;;;;;;;;;5005654;28;20480;-77
2021/07/04 13:06:46;;;;;;;6.78;5.00;;;;;;;;;;5006417;28;20026;-77
2021/07/04 13:09:19;;;;;;;7.15;4.63;;;;;;;;;;5008761;28;20041;-77
2021/07/04 13:12:07;;;;;;;8.20;5.55;;;;;;;;;;5008676;28;20065;-77
2021/07/04 13:14:54;;;;;;;8.63;5.13;;;;;;;;;;5006375;28;20036;-77
2021/07/04 13:17:29;;;;;;;5.90;4.28;;;;;;;;;;5008988;28;20422;-77
2021/07/04 13:19:57;;;;;;;6.68;4.90;;;;;;;;;;5004552;28;20424;-77
2021/07/04 13:22:29;;;;;;;7.70;5.25;;;;;;;;;;5005389;28;20116;-78
2021/07/04 13:25:03;;;;;;;8.37;4.87;;;;;;;;;;5009932;28;20030;-77
2021/07/04 13:27:31;;;;;;;6.07;4.45;;;;;;;;;;5011275;28;20041;-77
2021/07/04 13:30:07;;;;;;;6.65;4.88;;;;;;;;;;4999456;28;20513;-77
2021/07/04 13:32:32;;;;;;;6.90;4.68;;;;;;;;;;5004792;28;20049;-77
2021/07/04 13:34:58;;;;;;;6.88;4.57;;;;;;;;;;5007125;28;20034;-77
2021/07/04 13:37:28;;;;;;;6.97;4.63;;;;;;;;;;5007783;28;20030;-77
2021/07/04 13:40:07;;;;;;;8.25;4.95;;;;;;;;;;5011021;28;20034;-77
2021/07/04 13:42:35;;;;;;;7.43;3.00;;;;;;;;;;5006594;28;20045;-81
2021/07/04 13:45:03;;;;;;;5.13;1.30;;;;;;;;;;5014693;28;20056;-82
2021/07/04 13:47:28;;;;;;;4.68;0.95;;;;;;;;;;5035157;28;20050;-82
2021/07/04 13:49:54;;;;;;;3.65;0.70;;;;;;;;;;5012551;28;20036;-82
2021/07/04 13:52:19;;;;;;;1.88;0.50;;;;;;;;;;4997463;28;20037;-82
2021/07/04 13:54:45;;;;;;;1.15;0.55;;;;;;;;;;5030013;28;20922;-81
2021/07/04 13:57:12;;;;;;;1.58;0.50;;;;;;;;;;5013054;28;20105;-82
2021/07/04 13:59:38;;;;;;;4.30;0.50;;;;;;;;;;5016902;28;20025;-82
2021/07/04 14:02:04;;;;;;;0.98;0.40;;;;;;;;;;5016571;28;20401;-81
2021/07/04 14:04:30;;;;;;;3.03;0.50;;;;;;;;;;5014183;28;20036;-81
2021/07/04 14:06:55;;;;;;;2.38;0.63;;;;;;;;;;5013869;28;20389;-81
2021/07/04 14:09:21;;;;;;;1.70;0.50;;;;;;;;;;5015579;28;20033;-81
2021/07/04 14:11:47;;;;;;;1.52;0.57;;;;;;;;;;4996793;28;21666;-81
2021/07/04 14:14:14;;;;;;;0.68;0.40;;;;;;;;;;5013784;28;20080;-81
2021/07/04 14:16:40;;;;;;;1.88;0.60;;;;;;;;;;5011193;28;20057;-80
2021/07/04 14:19:05;;;;;;;1.25;0.60;;;;;;;;;;5027691;28;20026;-81
2021/07/04 14:21:32;;;;;;;2.58;0.77;;;;;;;;;;5030660;28;20076;-81
2021/07/04 14:23:57;;;;;;;2.83;0.70;;;;;;;;;;5014755;28;20386;-81
2021/07/04 14:26:23;;;;;;;1.17;0.60;;;;;;;;;;5016089;28;20042;-81
2021/07/04 14:28:49;;;;;;;2.25;0.80;;;;;;;;;;5013839;28;20074;-81
2021/07/04 14:31:16;;;;;;;1.30;0.60;;;;;;;;;;5026270;28;20536;-81
2021/07/04 14:33:41;;;;;;;1.63;0.60;;;;;;;;;;4995379;28;20041;-81
2021/07/04 14:36:07;;;;;;;1.75;0.50;;;;;;;;;;5013621;28;20034;-81
2021/07/04 14:38:33;;;;;;;1.75;0.55;;;;;;;;;;5016404;28;20033;-81